Aviation Digital Data Service (ADDS)

Output produced by METARs form (1904 UTC 18 June 2019)
found at http://www.aviationweather.gov/metar/data/
 
VVDN 181830Z 21003KT 9999 FEW015 BKN060 27/25 Q1007 NOSIG
TAF VVDN 181700Z 1818/1918 23004KT 9999 FEW015 
     BECMG 1904/1905 10010KT 
     PROB40 
     TEMPO 1908/1912 4000 TSRA SCT013 FEW017CB BKN060 
     BECMG 1912/1913 23004KT
       
VVNB 181830Z 10006KT 9999 BKN013 BKN040 28/28 Q1005 NOSIG
TAF VVNB 181700Z 1818/1918 10005KT 6000 SCT013 
     TEMPO 1820/1903 5000 RA SCT010 FEW023TCU BKN040
       
VVTS 181830Z 26006KT 9999 FEW017 SCT050 27/26 Q1008 NOSIG
TAF VVTS 181700Z 1818/1924 25008KT 9999 SCT015 SCT040 
     TEMPO 1907/1911 5000 TSRA BKN013 SCT015CB